createdAt,value
2022-08-25T00:01:31.312Z,99.90
2022-08-25T00:04:01.701Z,99.90
2022-08-25T00:06:28.965Z,99.90
2022-08-25T00:08:59.729Z,99.90
2022-08-25T00:11:30.010Z,99.90
2022-08-25T00:14:00.557Z,99.90
2022-08-25T00:16:30.233Z,99.90
2022-08-25T00:18:59.629Z,99.90
2022-08-25T00:21:28.053Z,99.90
2022-08-25T00:23:54.986Z,99.90
2022-08-25T00:26:23.014Z,99.90
2022-08-25T00:28:50.077Z,99.90
2022-08-25T00:31:23.719Z,99.90
2022-08-25T00:34:07.510Z,99.90
2022-08-25T00:36:34.949Z,99.90
2022-08-25T00:39:02.111Z,99.90
2022-08-25T00:41:29.349Z,99.90
2022-08-25T00:43:59.297Z,99.90
2022-08-25T00:46:32.677Z,99.90
2022-08-25T00:49:07.078Z,99.90
2022-08-25T00:51:43.249Z,99.90
2022-08-25T00:54:16.442Z,99.90
2022-08-25T00:56:45.529Z,99.90
2022-08-25T00:59:13.872Z,99.90
2022-08-25T01:01:41.012Z,99.90
2022-08-25T01:04:08.008Z,99.90
2022-08-25T01:06:38.779Z,99.90
2022-08-25T01:09:07.459Z,99.90
2022-08-25T01:11:35.445Z,99.90
2022-08-25T01:14:06.545Z,99.90
2022-08-25T01:16:38.317Z,99.90
2022-08-25T01:19:07.444Z,99.90
2022-08-25T01:21:40.997Z,99.90
2022-08-25T01:24:09.969Z,99.90
2022-08-25T01:26:37.101Z,99.90
2022-08-25T01:29:22.569Z,99.90
2022-08-25T01:31:51.065Z,99.90
2022-08-25T01:34:19.677Z,99.90
2022-08-25T01:36:47.036Z,99.90
2022-08-25T01:39:14.938Z,99.90
2022-08-25T01:41:41.865Z,99.90
2022-08-25T01:44:14.122Z,99.90
2022-08-25T01:46:43.969Z,99.90
2022-08-25T01:49:11.013Z,99.90
2022-08-25T01:51:49.057Z,99.90
2022-08-25T01:54:16.017Z,99.90
2022-08-25T01:56:43.294Z,99.90
2022-08-25T01:59:10.499Z,99.90
2022-08-25T02:01:37.585Z,99.90
2022-08-25T02:04:04.656Z,99.90
2022-08-25T02:06:33.310Z,99.90
2022-08-25T02:09:05.138Z,99.90
2022-08-25T02:11:33.917Z,99.90
2022-08-25T02:14:01.225Z,99.90
2022-08-25T02:16:35.403Z,99.90
2022-08-25T02:19:04.481Z,99.90
2022-08-25T02:21:32.613Z,99.90
2022-08-25T02:24:00.186Z,99.90
2022-08-25T02:26:28.033Z,99.90
2022-08-25T02:28:54.953Z,99.90
2022-08-25T02:31:24.939Z,99.90
2022-08-25T02:33:53.014Z,99.90
2022-08-25T02:36:20.521Z,99.90
2022-08-25T02:38:47.646Z,99.90
2022-08-25T02:41:21.040Z,99.90
2022-08-25T02:43:49.214Z,99.90
2022-08-25T02:46:19.923Z,99.90
2022-08-25T02:48:47.939Z,99.90
2022-08-25T02:51:15.612Z,99.90
2022-08-25T02:53:46.067Z,99.90
2022-08-25T02:56:14.684Z,99.90
2022-08-25T02:58:42.710Z,99.90
2022-08-25T03:01:12.074Z,99.90
2022-08-25T03:03:44.423Z,99.90
2022-08-25T03:06:13.930Z,99.90
2022-08-25T03:08:42.221Z,99.90
2022-08-25T03:11:09.897Z,99.90
2022-08-25T03:13:37.349Z,99.90
2022-08-25T03:16:10.863Z,99.90
2022-08-25T03:18:39.946Z,99.90
2022-08-25T03:21:07.917Z,99.90
2022-08-25T03:23:35.157Z,99.90
2022-08-25T03:26:20.470Z,99.90
2022-08-25T03:28:47.383Z,99.90
2022-08-25T03:31:14.824Z,99.90
2022-08-25T03:33:42.996Z,99.90
2022-08-25T03:36:12.319Z,99.90
2022-08-25T03:38:39.898Z,99.90
2022-08-25T03:41:15.150Z,99.90
2022-08-25T03:43:42.585Z,99.90
2022-08-25T03:46:10.425Z,99.90
2022-08-25T03:48:37.318Z,99.90
2022-08-25T03:51:04.575Z,99.90
2022-08-25T03:53:31.462Z,99.90
2022-08-25T03:55:58.658Z,99.90
2022-08-25T03:58:26.834Z,99.90
2022-08-25T04:00:54.100Z,99.90
2022-08-25T04:03:21.211Z,99.90
2022-08-25T04:05:48.172Z,99.90
2022-08-25T04:08:15.234Z,99.90
2022-08-25T04:10:42.311Z,99.90
2022-08-25T04:13:09.323Z,99.90
2022-08-25T04:15:36.802Z,99.90
2022-08-25T04:18:04.116Z,99.90
2022-08-25T04:20:31.171Z,99.90
2022-08-25T04:23:01.400Z,99.90
2022-08-25T04:25:29.174Z,99.90
2022-08-25T04:27:56.420Z,99.90
2022-08-25T04:30:23.567Z,99.90
2022-08-25T04:32:50.446Z,99.90
2022-08-25T04:35:17.489Z,99.90
2022-08-25T04:37:45.231Z,99.90
2022-08-25T04:40:12.776Z,99.90
2022-08-25T04:42:40.098Z,99.90
2022-08-25T04:45:07.536Z,99.90
2022-08-25T04:47:39.014Z,99.90
2022-08-25T04:50:07.503Z,99.90
2022-08-25T04:52:34.515Z,99.90
2022-08-25T04:55:01.707Z,99.90
2022-08-25T04:57:28.930Z,99.90
2022-08-25T04:59:55.823Z,99.90
2022-08-25T05:02:25.273Z,99.90
2022-08-25T05:04:52.640Z,99.90
2022-08-25T05:07:19.803Z,99.90
2022-08-25T05:09:46.863Z,99.90
2022-08-25T05:12:13.967Z,99.90
2022-08-25T05:14:40.975Z,99.90
2022-08-25T05:17:07.999Z,99.90
2022-08-25T05:19:36.239Z,99.90
2022-08-25T05:22:03.445Z,99.90
2022-08-25T05:24:30.471Z,99.90
2022-08-25T05:26:58.811Z,99.90
2022-08-25T05:29:26.063Z,99.90
2022-08-25T05:31:54.158Z,99.90
2022-08-25T05:34:21.768Z,99.90
2022-08-25T05:36:49.217Z,99.90
2022-08-25T05:39:16.271Z,99.90
2022-08-25T05:41:43.348Z,99.90
2022-08-25T05:44:10.776Z,99.90
2022-08-25T05:46:37.660Z,99.90
2022-08-25T05:49:04.605Z,99.90
2022-08-25T05:51:31.816Z,99.90
2022-08-25T05:53:58.749Z,99.90
2022-08-25T05:56:25.692Z,99.90
2022-08-25T05:58:52.608Z,99.90
2022-08-25T06:01:45.956Z,99.90
2022-08-25T06:04:14.140Z,99.90
2022-08-25T06:06:41.628Z,99.90
2022-08-25T06:09:09.726Z,99.90
2022-08-25T06:11:41.081Z,99.90
2022-08-25T06:14:09.801Z,99.90
2022-08-25T06:16:38.578Z,99.90
2022-08-25T06:19:06.608Z,99.90
2022-08-25T06:21:33.644Z,99.90
2022-08-25T06:24:01.854Z,99.90
2022-08-25T06:26:28.925Z,99.90
2022-08-25T06:28:55.799Z,99.90
2022-08-25T06:31:22.750Z,99.90
2022-08-25T06:33:50.112Z,99.90
2022-08-25T06:36:17.159Z,99.90
2022-08-25T06:38:44.117Z,99.90
2022-08-25T06:41:11.052Z,99.90
2022-08-25T06:43:42.575Z,99.90
2022-08-25T06:46:20.520Z,99.90
2022-08-25T06:48:48.107Z,99.90
2022-08-25T06:51:18.427Z,99.90
2022-08-25T06:53:47.881Z,99.90
2022-08-25T06:56:16.220Z,99.90
2022-08-25T06:58:43.473Z,99.90
2022-08-25T07:01:20.127Z,99.90
2022-08-25T07:03:48.479Z,99.90
2022-08-25T07:06:16.559Z,99.90
2022-08-25T07:08:46.639Z,99.90
2022-08-25T07:11:17.656Z,99.90
2022-08-25T07:13:45.961Z,99.90
2022-08-25T07:16:17.731Z,99.90
2022-08-25T07:18:46.349Z,99.90
2022-08-25T07:21:14.797Z,99.90
2022-08-25T07:23:42.545Z,99.90
2022-08-25T07:26:35.732Z,99.90
2022-08-25T07:28:59.986Z,99.90
2022-08-25T07:31:29.531Z,99.90
2022-08-25T07:34:16.513Z,99.90
2022-08-25T07:36:45.048Z,99.90
2022-08-25T07:39:13.003Z,99.80
2022-08-25T07:41:42.164Z,99.90
2022-08-25T07:44:11.413Z,99.90
2022-08-25T07:46:39.507Z,99.90
2022-08-25T07:49:16.794Z,99.90
2022-08-25T07:52:03.590Z,99.50
2022-08-25T07:54:33.972Z,99.80
2022-08-25T07:57:06.319Z,99.70
2022-08-25T07:59:39.585Z,99.60
2022-08-25T08:02:18.215Z,99.40
2022-08-25T08:04:50.504Z,99.40
2022-08-25T08:07:41.144Z,99.60
2022-08-25T08:10:42.201Z,99.90
2022-08-25T08:13:00.148Z,99.90
2022-08-25T08:15:29.827Z,99.90
2022-08-25T08:17:58.114Z,99.90
2022-08-25T08:20:26.824Z,99.90
2022-08-25T08:22:53.922Z,99.90
2022-08-25T08:25:21.327Z,99.90
2022-08-25T08:27:55.280Z,99.90
2022-08-25T08:30:26.008Z,99.90
2022-08-25T08:33:11.583Z,99.90
2022-08-25T08:35:40.173Z,99.90
2022-08-25T08:38:14.531Z,99.90
2022-08-25T08:41:40.061Z,99.90
2022-08-25T08:44:22.409Z,99.90
2022-08-25T08:47:08.995Z,99.90
2022-08-25T08:49:57.455Z,99.90
2022-08-25T08:52:43.541Z,99.90
2022-08-25T08:55:54.838Z,99.90
2022-08-25T08:58:28.964Z,99.90
2022-08-25T09:01:02.297Z,99.90
2022-08-25T09:03:41.224Z,99.90
2022-08-25T09:06:21.747Z,99.70
2022-08-25T09:08:49.200Z,99.70
2022-08-25T09:11:33.865Z,99.50
2022-08-25T09:14:10.980Z,99.40
2022-08-25T09:16:55.521Z,98.60
2022-08-25T09:19:23.491Z,97.80
2022-08-25T09:22:36.017Z,97.80
2022-08-25T09:25:29.574Z,97.90
2022-08-25T09:28:26.036Z,97.50
2022-08-25T09:31:01.271Z,97.30
2022-08-25T09:33:31.496Z,97.20
2022-08-25T09:36:04.508Z,97.10
2022-08-25T09:38:33.432Z,97.30
2022-08-25T09:41:02.016Z,97.10
2022-08-25T09:43:42.876Z,97.20
2022-08-25T09:46:23.666Z,94.50
2022-08-25T09:48:59.592Z,94.30
2022-08-25T09:51:38.183Z,93.60
2022-08-25T09:54:13.227Z,93.40
2022-08-25T09:56:58.764Z,93.50
2022-08-25T09:59:35.754Z,92.10
2022-08-25T10:02:27.888Z,92.40
2022-08-25T10:04:55.243Z,92.30
2022-08-25T10:07:38.713Z,92.10
2022-08-25T10:10:18.490Z,92.10
2022-08-25T10:12:51.551Z,91.40
2022-08-25T10:15:29.681Z,90.60
2022-08-25T10:18:17.725Z,90.80
2022-08-25T10:20:50.920Z,90.60
2022-08-25T10:23:17.977Z,86.20
2022-08-25T10:25:59.010Z,86.40
2022-08-25T10:28:43.500Z,84.30
2022-08-25T10:31:21.223Z,84.80
2022-08-25T10:33:59.349Z,87.00
2022-08-25T10:36:57.744Z,85.80
2022-08-25T10:39:40.469Z,83.90
2022-08-25T10:42:36.704Z,82.00
2022-08-25T10:45:45.141Z,83.50
2022-08-25T10:48:23.461Z,82.00
2022-08-25T10:51:01.234Z,81.60
2022-08-25T10:53:34.797Z,82.60
2022-08-25T10:56:21.120Z,79.40
2022-08-25T10:58:54.456Z,79.70
2022-08-25T11:01:43.975Z,78.30
2022-08-25T11:04:14.364Z,79.30
2022-08-25T11:06:54.788Z,77.50
2022-08-25T11:09:30.568Z,77.30
2022-08-25T11:12:14.392Z,77.90
2022-08-25T11:14:54.342Z,77.20
2022-08-25T11:17:26.589Z,75.10
2022-08-25T11:20:01.669Z,74.60
2022-08-25T11:22:46.392Z,75.40
2022-08-25T11:25:25.745Z,75.80
2022-08-25T11:28:10.990Z,76.90
2022-08-25T11:30:38.616Z,77.60
2022-08-25T11:33:07.705Z,77.10
2022-08-25T11:35:46.877Z,76.00
2022-08-25T11:38:21.189Z,76.20
2022-08-25T11:41:42.582Z,75.10
2022-08-25T11:44:20.705Z,75.00
2022-08-25T11:47:00.481Z,71.20
2022-08-25T11:49:37.604Z,70.20
2022-08-25T11:52:30.797Z,68.00
2022-08-25T11:55:11.013Z,68.90
2022-08-25T11:57:39.021Z,70.60
2022-08-25T12:00:15.397Z,71.30
2022-08-25T12:02:47.705Z,71.60
2022-08-25T12:05:22.163Z,72.80
2022-08-25T12:08:13.371Z,72.00
2022-08-25T12:11:07.270Z,71.80
2022-08-25T12:13:49.596Z,71.30
2022-08-25T12:16:35.698Z,71.90
2022-08-25T12:19:36.682Z,71.70
2022-08-25T12:22:05.137Z,72.20
2022-08-25T12:24:56.365Z,70.20
2022-08-25T12:27:36.698Z,69.70
2022-08-25T12:30:18.414Z,69.30
2022-08-25T12:32:54.343Z,70.60
2022-08-25T12:35:41.880Z,70.30
2022-08-25T12:38:16.662Z,69.90
2022-08-25T12:40:43.858Z,70.00
2022-08-25T12:43:24.922Z,71.10
2022-08-25T12:45:54.255Z,71.40
2022-08-25T12:48:28.083Z,71.10
2022-08-25T12:51:04.241Z,71.00
2022-08-25T12:53:51.814Z,72.00
2022-08-25T12:56:39.536Z,71.30
2022-08-25T12:59:20.229Z,71.50
2022-08-25T13:02:16.064Z,71.50
2022-08-25T13:05:01.390Z,70.30
2022-08-25T13:07:48.330Z,70.40
2022-08-25T13:10:21.125Z,67.70
2022-08-25T13:13:45.418Z,68.60
2022-08-25T13:16:29.071Z,68.50
2022-08-25T13:18:59.602Z,68.70
2022-08-25T13:21:37.606Z,67.50
2022-08-25T13:24:20.978Z,66.50
2022-08-25T13:26:52.598Z,67.80
2022-08-25T13:29:26.046Z,66.70
2022-08-25T13:31:57.715Z,67.10
2022-08-25T13:34:34.429Z,67.70
2022-08-25T13:37:32.270Z,68.90
2022-08-25T13:40:12.826Z,66.90
2022-08-25T13:42:43.211Z,68.60
2022-08-25T13:45:23.899Z,67.40
2022-08-25T13:47:56.076Z,65.40
2022-08-25T13:50:26.477Z,65.80
2022-08-25T13:53:06.525Z,66.70
2022-08-25T13:55:51.481Z,64.10
2022-08-25T13:58:39.487Z,63.60
2022-08-25T14:01:47.259Z,60.20
2022-08-25T14:04:27.366Z,60.20
2022-08-25T14:07:23.163Z,59.50
2022-08-25T14:09:53.291Z,61.30
2022-08-25T14:12:47.555Z,62.30
2022-08-25T14:15:17.414Z,60.80
2022-08-25T14:17:59.481Z,61.80
2022-08-25T14:20:29.290Z,62.60
2022-08-25T14:22:59.412Z,60.60
2022-08-25T14:25:30.366Z,60.00
2022-08-25T14:28:08.246Z,61.90
2022-08-25T14:30:39.955Z,62.50
2022-08-25T14:33:11.848Z,60.30
2022-08-25T14:35:38.764Z,58.50
2022-08-25T14:38:11.021Z,59.00
2022-08-25T14:40:39.659Z,60.20
2022-08-25T14:43:09.663Z,60.20
2022-08-25T14:45:40.110Z,59.30
2022-08-25T14:48:10.820Z,60.20
2022-08-25T14:50:41.876Z,59.90
2022-08-25T14:53:10.427Z,58.90
2022-08-25T14:55:38.907Z,57.70
2022-08-25T14:58:07.339Z,57.40
2022-08-25T15:00:41.909Z,57.00
2022-08-25T15:03:31.769Z,57.20
2022-08-25T15:06:00.531Z,58.90
2022-08-25T15:08:46.924Z,59.60
2022-08-25T15:11:14.944Z,58.30
2022-08-25T15:13:49.001Z,59.70
2022-08-25T15:16:34.036Z,59.20
2022-08-25T15:19:07.233Z,59.00
2022-08-25T15:21:35.847Z,59.00
2022-08-25T15:24:04.711Z,59.30
2022-08-25T15:26:35.267Z,60.00
2022-08-25T15:29:03.767Z,59.30
2022-08-25T15:31:30.736Z,58.80
2022-08-25T15:33:57.699Z,59.20
2022-08-25T15:36:26.156Z,60.00
2022-08-25T15:38:53.321Z,59.50
2022-08-25T15:41:23.121Z,59.40
2022-08-25T15:43:54.708Z,58.90
2022-08-25T15:46:25.033Z,60.00
2022-08-25T15:48:52.151Z,58.70
2022-08-25T15:51:19.080Z,59.00
2022-08-25T15:53:46.455Z,59.20
2022-08-25T15:56:16.043Z,58.80
2022-08-25T15:58:53.852Z,58.00
2022-08-25T16:01:24.865Z,58.20
2022-08-25T16:03:52.471Z,57.40
2022-08-25T16:06:19.724Z,57.80
2022-08-25T16:08:47.655Z,58.00
2022-08-25T16:11:28.260Z,57.30
2022-08-25T16:13:57.380Z,58.00
2022-08-25T16:16:26.475Z,57.40
2022-08-25T16:18:53.807Z,57.10
2022-08-25T16:21:29.153Z,56.10
2022-08-25T16:24:01.919Z,56.60
2022-08-25T16:26:31.411Z,55.60
2022-08-25T16:28:58.512Z,56.00
2022-08-25T16:31:26.135Z,56.10
2022-08-25T16:33:56.102Z,55.90
2022-08-25T16:36:27.209Z,56.40
2022-08-25T16:38:57.321Z,56.80
2022-08-25T16:41:31.532Z,56.90
2022-08-25T16:43:58.722Z,56.50
2022-08-25T16:46:25.802Z,57.20
2022-08-25T16:48:53.456Z,57.80
2022-08-25T16:51:22.124Z,58.20
2022-08-25T16:54:08.604Z,58.80
2022-08-25T16:56:36.973Z,59.00
2022-08-25T16:59:06.277Z,59.60
2022-08-25T17:01:35.514Z,59.40
2022-08-25T17:04:03.468Z,59.40
2022-08-25T17:06:36.268Z,59.50
2022-08-25T17:09:03.740Z,60.10
2022-08-25T17:11:35.150Z,59.60
2022-08-25T17:14:04.657Z,59.50
2022-08-25T17:16:38.086Z,59.90
2022-08-25T17:19:11.678Z,60.20
2022-08-25T17:21:41.216Z,60.70
2022-08-25T17:24:12.668Z,60.90
2022-08-25T17:26:42.261Z,60.80
2022-08-25T17:29:09.628Z,60.90
2022-08-25T17:31:39.845Z,60.80
2022-08-25T17:34:10.651Z,61.20
2022-08-25T17:36:38.373Z,61.90
2022-08-25T17:39:08.715Z,63.20
2022-08-25T17:41:37.835Z,64.00
2022-08-25T17:44:05.317Z,64.40
2022-08-25T17:46:32.966Z,65.00
2022-08-25T17:49:00.232Z,63.20
2022-08-25T17:51:27.271Z,63.70
2022-08-25T17:53:58.835Z,64.20
2022-08-25T17:56:27.394Z,64.30
2022-08-25T17:58:55.965Z,63.90
2022-08-25T18:01:29.196Z,64.60
2022-08-25T18:03:57.531Z,65.40
2022-08-25T18:06:25.313Z,65.60
2022-08-25T18:08:56.373Z,66.30
2022-08-25T18:11:26.030Z,66.30
2022-08-25T18:13:53.852Z,66.50
2022-08-25T18:16:21.569Z,66.20
2022-08-25T18:18:48.699Z,65.60
2022-08-25T18:21:18.017Z,66.30
2022-08-25T18:23:45.801Z,66.40
2022-08-25T18:26:15.346Z,67.80
2022-08-25T18:28:43.893Z,66.90
2022-08-25T18:31:13.154Z,67.30
2022-08-25T18:33:42.220Z,67.50
2022-08-25T18:36:09.855Z,67.90
2022-08-25T18:38:56.593Z,68.10
2022-08-25T18:41:25.860Z,68.40
2022-08-25T18:43:53.168Z,68.30
2022-08-25T18:46:22.669Z,68.00
2022-08-25T18:48:53.708Z,67.40
2022-08-25T18:51:23.225Z,68.30
2022-08-25T18:53:54.461Z,68.70
2022-08-25T18:56:26.701Z,69.10
2022-08-25T18:58:53.530Z,69.60
2022-08-25T19:01:21.360Z,70.10
2022-08-25T19:03:48.836Z,69.90
2022-08-25T19:06:16.920Z,70.40
2022-08-25T19:08:45.224Z,71.00
2022-08-25T19:11:12.772Z,70.20
2022-08-25T19:13:40.345Z,70.60
2022-08-25T19:16:30.791Z,70.50
2022-08-25T19:18:57.719Z,70.70
2022-08-25T19:21:25.299Z,71.20
2022-08-25T19:23:53.154Z,71.80
2022-08-25T19:26:20.923Z,72.00
2022-08-25T19:28:49.347Z,71.90
2022-08-25T19:31:27.022Z,72.20
2022-08-25T19:33:55.813Z,72.60
2022-08-25T19:36:28.014Z,72.80
2022-08-25T19:38:58.288Z,72.00
2022-08-25T19:41:27.702Z,72.80
2022-08-25T19:43:56.147Z,73.40
2022-08-25T19:46:37.906Z,73.50
2022-08-25T19:49:10.113Z,73.90
2022-08-25T19:51:47.716Z,74.40
2022-08-25T19:54:25.401Z,74.30
2022-08-25T19:56:55.327Z,74.30
2022-08-25T19:59:42.349Z,74.90
2022-08-25T20:02:15.759Z,74.30
2022-08-25T20:04:49.211Z,75.00
2022-08-25T20:07:19.007Z,74.30
2022-08-25T20:09:46.466Z,74.80
2022-08-25T20:14:47.168Z,75.70
2022-08-25T20:17:24.813Z,74.50
2022-08-25T20:19:55.728Z,74.70
2022-08-25T20:22:26.126Z,75.20
2022-08-25T20:25:13.385Z,74.90
2022-08-25T20:27:46.793Z,75.50
2022-08-25T20:30:22.218Z,75.80
2022-08-25T20:32:50.798Z,75.90
2022-08-25T20:35:18.721Z,76.80
2022-08-25T20:37:47.360Z,76.30
2022-08-25T20:40:18.237Z,76.30
2022-08-25T20:42:52.178Z,77.10
2022-08-25T20:45:24.169Z,77.10
2022-08-25T20:47:51.341Z,77.10
2022-08-25T20:50:18.490Z,77.10
2022-08-25T20:52:45.435Z,77.80
2022-08-25T20:55:12.470Z,78.30
2022-08-25T20:57:40.422Z,78.50
2022-08-25T21:00:09.598Z,78.70
2022-08-25T21:02:37.011Z,78.70
2022-08-25T21:05:04.762Z,79.20
2022-08-25T21:07:31.718Z,79.20
2022-08-25T21:10:05.494Z,79.60
2022-08-25T21:12:32.354Z,80.00
2022-08-25T21:14:59.261Z,79.90
2022-08-25T21:17:26.289Z,79.90
2022-08-25T21:19:53.258Z,80.40
2022-08-25T21:22:20.681Z,80.80
2022-08-25T21:24:47.537Z,79.80
2022-08-25T21:27:14.565Z,79.40
2022-08-25T21:29:44.819Z,79.70
2022-08-25T21:32:22.260Z,79.40
2022-08-25T21:34:56.414Z,79.70
2022-08-25T21:37:24.466Z,80.10
2022-08-25T21:39:52.306Z,80.20
2022-08-25T21:42:22.404Z,80.60
2022-08-25T21:44:50.558Z,80.60
2022-08-25T21:47:21.141Z,80.60
2022-08-25T21:49:49.060Z,80.70
2022-08-25T21:52:16.089Z,80.50
2022-08-25T21:54:44.749Z,80.80
2022-08-25T21:57:11.598Z,81.20
2022-08-25T21:59:43.439Z,81.30
2022-08-25T22:02:12.487Z,80.40
2022-08-25T22:04:40.374Z,80.50
2022-08-25T22:07:08.781Z,80.60
2022-08-25T22:09:35.731Z,81.00
2022-08-25T22:12:03.819Z,81.30
2022-08-25T22:14:31.137Z,81.00
2022-08-25T22:16:58.214Z,80.90
2022-08-25T22:19:26.393Z,81.10
2022-08-25T22:21:53.958Z,81.30
2022-08-25T22:24:21.157Z,81.30
2022-08-25T22:26:49.078Z,81.60
2022-08-25T22:29:25.843Z,81.90
2022-08-25T22:32:00.789Z,81.90
2022-08-25T22:34:33.078Z,81.90
2022-08-25T22:37:04.829Z,81.90
2022-08-25T22:39:34.248Z,82.10
2022-08-25T22:42:02.885Z,82.40
2022-08-25T22:44:30.215Z,82.60
2022-08-25T22:46:57.048Z,82.90
2022-08-25T22:49:24.041Z,83.10
2022-08-25T22:51:51.122Z,83.20
2022-08-25T22:54:21.917Z,83.40
2022-08-25T22:56:48.741Z,83.60
2022-08-25T22:59:15.713Z,83.60
2022-08-25T23:01:44.141Z,83.60
2022-08-25T23:04:11.684Z,83.70
2022-08-25T23:06:40.127Z,83.60
2022-08-25T23:09:08.842Z,83.90
2022-08-25T23:11:38.429Z,84.10
2022-08-25T23:14:08.290Z,84.80
2022-08-25T23:16:35.238Z,85.30
2022-08-25T23:19:02.279Z,84.90
2022-08-25T23:21:48.453Z,85.40
2022-08-25T23:24:29.151Z,85.20
2022-08-25T23:27:01.616Z,84.80
2022-08-25T23:29:29.910Z,85.00
2022-08-25T23:31:58.251Z,84.90
2022-08-25T23:34:26.838Z,84.90
2022-08-25T23:36:55.942Z,85.10
2022-08-25T23:39:23.064Z,84.80
2022-08-25T23:41:51.009Z,84.70
2022-08-25T23:44:19.176Z,85.00
2022-08-25T23:46:47.852Z,84.90
2022-08-25T23:49:18.700Z,84.80
2022-08-25T23:51:47.745Z,85.30
2022-08-25T23:54:16.332Z,85.30
2022-08-25T23:56:44.887Z,85.10
2022-08-25T23:59:18.939Z,85.20
